createdAt,value
2018-09-08T08:36:15.536Z,16.70
2018-09-08T08:42:25.336Z,17.00
2018-09-08T08:48:15.306Z,17.00
2018-09-08T08:50:57.291Z,16.90
2018-09-08T08:53:39.259Z,16.90
2018-09-08T08:56:09.903Z,16.90
2018-09-08T08:58:39.433Z,17.10
2018-09-08T09:01:11.828Z,17.30
2018-09-08T09:03:53.105Z,17.30
2018-09-08T09:06:23.132Z,17.50
2018-09-08T09:09:03.739Z,17.60
2018-09-08T09:11:54.030Z,17.60
2018-09-08T10:42:18.878Z,17.80
2018-09-08T10:44:58.644Z,19.20
2018-09-08T10:47:35.415Z,19.20
2018-09-08T10:50:15.641Z,19.20
2018-09-08T10:52:51.116Z,19.20
2018-09-08T10:58:40.293Z,19.40
2018-09-08T11:01:43.880Z,19.60
2018-09-08T11:07:36.247Z,20.30
2018-09-08T11:10:14.585Z,20.10
2018-09-08T11:12:56.972Z,19.80
2018-09-08T11:15:52.229Z,19.60
2018-09-08T11:18:25.327Z,19.70
2018-09-08T11:20:58.477Z,19.70
2018-09-08T11:23:48.335Z,19.70
2018-09-08T11:26:17.703Z,19.50
2018-09-08T11:29:01.044Z,19.50
2018-09-08T11:31:42.399Z,19.60
2018-09-08T11:34:13.907Z,20.00
2018-09-08T11:36:57.879Z,20.10
2018-09-08T11:39:35.477Z,19.90
2018-09-08T11:42:08.635Z,19.80
2018-09-08T11:44:46.128Z,20.20
2018-09-08T11:50:30.741Z,20.60
2018-09-08T11:53:02.038Z,20.80
2018-09-08T12:41:35.501Z,20.30
2018-09-08T12:44:14.284Z,20.80
2018-09-08T13:06:05.569Z,20.50
2018-09-08T13:08:36.374Z,20.70
2018-09-08T13:11:10.243Z,20.80
2018-09-08T13:17:13.131Z,20.60
2018-09-08T13:19:42.506Z,20.50
2018-09-08T13:22:23.902Z,20.60
2018-09-08T13:24:54.109Z,20.70
2018-09-08T13:27:27.241Z,20.80
2018-09-08T13:30:12.095Z,20.80
2018-09-08T13:32:42.154Z,20.80
2018-09-08T13:35:13.622Z,20.70
2018-09-08T13:37:44.356Z,20.50
2018-09-08T13:40:16.812Z,20.30
2018-09-08T14:37:22.595Z,20.40
2018-09-08T14:39:54.102Z,20.10
2018-09-08T14:42:26.992Z,20.00
2018-09-08T14:45:00.988Z,19.90
2018-09-08T14:50:55.254Z,20.30
2018-09-08T14:53:27.555Z,20.60
2018-09-08T14:55:58.562Z,20.50
2018-09-08T15:12:25.887Z,20.00
2018-09-08T15:14:56.151Z,19.80
2018-09-08T15:17:29.099Z,19.90
2018-09-08T15:20:21.019Z,19.90
2018-09-08T15:22:51.516Z,19.90
2018-09-08T15:25:50.712Z,19.90
2018-09-08T15:28:35.681Z,19.80
2018-09-08T15:31:08.859Z,19.70
2018-09-08T15:33:38.895Z,19.70
2018-09-08T15:36:16.488Z,19.80
2018-09-08T15:38:54.270Z,20.00
2018-09-08T15:41:26.547Z,20.00
2018-09-08T15:44:16.889Z,20.00
2018-09-08T15:46:52.414Z,20.00
2018-09-08T15:49:21.876Z,19.90
2018-09-08T15:51:56.609Z,20.00
2018-09-08T15:54:26.731Z,19.90
2018-09-08T15:56:56.674Z,19.90
2018-09-08T15:59:26.364Z,19.90
2018-09-08T16:02:01.892Z,19.90
2018-09-08T16:04:35.461Z,19.90
2018-09-08T16:07:05.326Z,19.80
2018-09-08T16:09:35.727Z,19.50
2018-09-08T16:12:17.210Z,19.40
2018-09-08T16:14:54.120Z,19.30
2018-09-08T16:17:26.338Z,19.20
2018-09-08T16:19:57.488Z,19.30
2018-09-08T16:22:40.649Z,19.30
2018-09-08T16:25:11.959Z,19.30
2018-09-08T16:27:54.780Z,19.20
2018-09-08T16:30:36.284Z,19.10
2018-09-08T16:33:18.916Z,19.10
2018-09-08T16:49:29.977Z,19.00
2018-09-08T16:52:03.371Z,18.80
2018-09-08T16:54:37.572Z,18.80
2018-09-08T16:57:09.131Z,18.70
2018-09-08T16:59:44.853Z,18.60
2018-09-08T17:02:19.000Z,18.50
2018-09-08T17:05:00.235Z,18.40
2018-09-08T17:07:33.273Z,18.30
2018-09-08T17:10:24.498Z,18.10
2018-09-08T17:13:09.834Z,18.00
2018-09-08T17:16:00.351Z,17.90
2018-09-08T17:18:38.525Z,17.80
2018-09-08T17:21:18.887Z,17.70
2018-09-08T17:23:55.755Z,17.70
2018-09-08T20:15:25.516Z,17.60
2018-09-08T21:57:11.459Z,16.20
